sensor_id;sensor_type;location;lat;lon;timestamp;P1;durP1;ratioP1;P2;durP2;ratioP2
23206;SDS011;11773;52.570;13.052;2023-11-22T00:00:53;0.70;;;0.60;;
23206;SDS011;11773;52.570;13.052;2023-11-22T00:03:22;0.67;;;0.67;;
23206;SDS011;11773;52.570;13.052;2023-11-22T00:05:52;0.70;;;0.60;;
23206;SDS011;11773;52.570;13.052;2023-11-22T00:08:22;1.30;;;1.20;;
23206;SDS011;11773;52.570;13.052;2023-11-22T00:10:52;1.17;;;1.07;;
23206;SDS011;11773;52.570;13.052;2023-11-22T00:13:22;1.00;;;1.00;;
23206;SDS011;11773;52.570;13.052;2023-11-22T00:15:52;1.10;;;1.00;;
23206;SDS011;11773;52.570;13.052;2023-11-22T00:18:24;1.07;;;1.00;;
23206;SDS011;11773;52.570;13.052;2023-11-22T00:20:54;0.70;;;0.70;;
23206;SDS011;11773;52.570;13.052;2023-11-22T00:23:25;0.90;;;0.90;;
23206;SDS011;11773;52.570;13.052;2023-11-22T00:25:57;0.90;;;0.80;;
23206;SDS011;11773;52.570;13.052;2023-11-22T00:28:26;0.90;;;0.90;;
23206;SDS011;11773;52.570;13.052;2023-11-22T00:30:56;1.07;;;0.97;;
23206;SDS011;11773;52.570;13.052;2023-11-22T00:33:25;0.70;;;0.70;;
23206;SDS011;11773;52.570;13.052;2023-11-22T00:35:55;0.70;;;0.70;;
23206;SDS011;11773;52.570;13.052;2023-11-22T00:38:25;0.77;;;0.73;;
23206;SDS011;11773;52.570;13.052;2023-11-22T00:40:55;0.60;;;0.60;;
23206;SDS011;11773;52.570;13.052;2023-11-22T00:43:25;1.13;;;0.80;;
23206;SDS011;11773;52.570;13.052;2023-11-22T00:45:54;0.80;;;0.80;;
23206;SDS011;11773;52.570;13.052;2023-11-22T00:48:24;0.87;;;0.87;;
23206;SDS011;11773;52.570;13.052;2023-11-22T00:50:53;0.70;;;0.70;;
23206;SDS011;11773;52.570;13.052;2023-11-22T00:53:23;0.50;;;0.50;;
23206;SDS011;11773;52.570;13.052;2023-11-22T00:55:53;0.50;;;0.43;;
23206;SDS011;11773;52.570;13.052;2023-11-22T00:58:22;0.67;;;0.67;;
23206;SDS011;11773;52.570;13.052;2023-11-22T01:00:52;0.70;;;0.70;;
23206;SDS011;11773;52.570;13.052;2023-11-22T01:03:22;1.53;;;1.43;;
23206;SDS011;11773;52.570;13.052;2023-11-22T01:05:52;1.10;;;1.00;;
23206;SDS011;11773;52.570;13.052;2023-11-22T01:08:22;1.30;;;1.20;;
23206;SDS011;11773;52.570;13.052;2023-11-22T01:10:52;0.80;;;0.80;;
23206;SDS011;11773;52.570;13.052;2023-11-22T01:13:21;1.03;;;0.93;;
23206;SDS011;11773;52.570;13.052;2023-11-22T01:15:51;1.10;;;0.93;;
23206;SDS011;11773;52.570;13.052;2023-11-22T01:18:21;1.13;;;1.03;;
23206;SDS011;11773;52.570;13.052;2023-11-22T01:20:51;0.68;;;0.68;;
23206;SDS011;11773;52.570;13.052;2023-11-22T01:23:21;2.33;;;1.70;;
23206;SDS011;11773;52.570;13.052;2023-11-22T01:25:50;1.40;;;1.20;;
23206;SDS011;11773;52.570;13.052;2023-11-22T01:28:20;1.30;;;1.17;;
23206;SDS011;11773;52.570;13.052;2023-11-22T01:30:50;0.80;;;0.80;;
23206;SDS011;11773;52.570;13.052;2023-11-22T01:33:20;1.23;;;1.13;;
23206;SDS011;11773;52.570;13.052;2023-11-22T01:35:50;1.67;;;1.30;;
23206;SDS011;11773;52.570;13.052;2023-11-22T01:38:20;1.50;;;1.40;;
23206;SDS011;11773;52.570;13.052;2023-11-22T01:40:50;1.10;;;1.00;;
23206;SDS011;11773;52.570;13.052;2023-11-22T01:43:20;0.73;;;0.73;;
23206;SDS011;11773;52.570;13.052;2023-11-22T01:45:51;1.10;;;1.00;;
23206;SDS011;11773;52.570;13.052;2023-11-22T01:48:22;0.70;;;0.70;;
23206;SDS011;11773;52.570;13.052;2023-11-22T01:50:52;0.60;;;0.60;;
23206;SDS011;11773;52.570;13.052;2023-11-22T01:53:22;0.67;;;0.67;;
23206;SDS011;11773;52.570;13.052;2023-11-22T01:55:52;0.90;;;0.90;;
23206;SDS011;11773;52.570;13.052;2023-11-22T01:58:23;0.80;;;0.70;;
23206;SDS011;11773;52.570;13.052;2023-11-22T02:00:54;0.90;;;0.90;;
23206;SDS011;11773;52.570;13.052;2023-11-22T02:03:25;0.80;;;0.70;;
23206;SDS011;11773;52.570;13.052;2023-11-22T02:05:56;0.93;;;0.87;;
23206;SDS011;11773;52.570;13.052;2023-11-22T02:08:27;0.80;;;0.80;;
23206;SDS011;11773;52.570;13.052;2023-11-22T02:10:57;0.70;;;0.70;;
23206;SDS011;11773;52.570;13.052;2023-11-22T02:13:30;0.70;;;0.70;;
23206;SDS011;11773;52.570;13.052;2023-11-22T02:16:00;0.67;;;0.67;;
23206;SDS011;11773;52.570;13.052;2023-11-22T02:18:31;1.53;;;1.27;;
23206;SDS011;11773;52.570;13.052;2023-11-22T02:21:01;0.90;;;0.90;;
23206;SDS011;11773;52.570;13.052;2023-11-22T02:23:31;1.40;;;1.10;;
23206;SDS011;11773;52.570;13.052;2023-11-22T02:26:01;1.00;;;0.90;;
23206;SDS011;11773;52.570;13.052;2023-11-22T02:28:30;0.90;;;0.90;;
23206;SDS011;11773;52.570;13.052;2023-11-22T02:31:00;1.00;;;0.93;;
23206;SDS011;11773;52.570;13.052;2023-11-22T02:33:30;0.73;;;0.70;;
23206;SDS011;11773;52.570;13.052;2023-11-22T02:36:00;0.80;;;0.80;;
23206;SDS011;11773;52.570;13.052;2023-11-22T02:38:30;0.80;;;0.80;;
23206;SDS011;11773;52.570;13.052;2023-11-22T02:41:01;1.27;;;1.17;;
23206;SDS011;11773;52.570;13.052;2023-11-22T02:43:31;1.10;;;1.00;;
23206;SDS011;11773;52.570;13.052;2023-11-22T02:46:01;1.70;;;1.50;;
23206;SDS011;11773;52.570;13.052;2023-11-22T02:48:31;1.47;;;1.13;;
23206;SDS011;11773;52.570;13.052;2023-11-22T02:51:00;1.17;;;1.03;;
23206;SDS011;11773;52.570;13.052;2023-11-22T02:53:30;1.40;;;0.97;;
23206;SDS011;11773;52.570;13.052;2023-11-22T02:56:01;0.87;;;0.80;;
23206;SDS011;11773;52.570;13.052;2023-11-22T02:58:30;1.23;;;1.10;;
23206;SDS011;11773;52.570;13.052;2023-11-22T03:01:00;1.07;;;1.00;;
23206;SDS011;11773;52.570;13.052;2023-11-22T03:03:30;1.03;;;0.93;;
23206;SDS011;11773;52.570;13.052;2023-11-22T03:06:00;0.90;;;0.90;;
23206;SDS011;11773;52.570;13.052;2023-11-22T03:08:30;0.80;;;0.80;;
23206;SDS011;11773;52.570;13.052;2023-11-22T03:11:00;1.50;;;1.20;;
23206;SDS011;11773;52.570;13.052;2023-11-22T03:13:30;0.70;;;0.70;;
23206;SDS011;11773;52.570;13.052;2023-11-22T03:16:00;1.10;;;1.00;;
23206;SDS011;11773;52.570;13.052;2023-11-22T03:18:30;0.80;;;0.80;;
23206;SDS011;11773;52.570;13.052;2023-11-22T03:21:00;1.30;;;1.20;;
23206;SDS011;11773;52.570;13.052;2023-11-22T03:23:29;1.30;;;1.20;;
23206;SDS011;11773;52.570;13.052;2023-11-22T03:25:59;0.90;;;0.90;;
23206;SDS011;11773;52.570;13.052;2023-11-22T03:28:30;1.03;;;0.93;;
23206;SDS011;11773;52.570;13.052;2023-11-22T03:31:00;2.00;;;1.70;;
23206;SDS011;11773;52.570;13.052;2023-11-22T03:33:31;1.63;;;1.30;;
23206;SDS011;11773;52.570;13.052;2023-11-22T03:36:01;1.30;;;1.20;;
23206;SDS011;11773;52.570;13.052;2023-11-22T03:38:32;1.20;;;1.10;;
23206;SDS011;11773;52.570;13.052;2023-11-22T03:41:01;1.15;;;1.05;;
23206;SDS011;11773;52.570;13.052;2023-11-22T03:43:32;0.93;;;0.93;;
23206;SDS011;11773;52.570;13.052;2023-11-22T03:46:01;1.23;;;0.93;;
23206;SDS011;11773;52.570;13.052;2023-11-22T03:48:31;0.70;;;0.70;;
23206;SDS011;11773;52.570;13.052;2023-11-22T03:51:01;1.23;;;1.07;;
23206;SDS011;11773;52.570;13.052;2023-11-22T03:53:30;1.17;;;0.90;;
23206;SDS011;11773;52.570;13.052;2023-11-22T03:56:00;0.90;;;0.90;;
23206;SDS011;11773;52.570;13.052;2023-11-22T03:58:29;0.83;;;0.73;;
23206;SDS011;11773;52.570;13.052;2023-11-22T04:00:59;1.10;;;0.90;;
23206;SDS011;11773;52.570;13.052;2023-11-22T04:03:30;0.97;;;0.93;;
23206;SDS011;11773;52.570;13.052;2023-11-22T04:06:00;1.00;;;0.87;;
23206;SDS011;11773;52.570;13.052;2023-11-22T04:08:29;0.90;;;0.90;;
23206;SDS011;11773;52.570;13.052;2023-11-22T04:10:59;1.37;;;1.10;;
23206;SDS011;11773;52.570;13.052;2023-11-22T04:13:29;1.20;;;1.10;;
23206;SDS011;11773;52.570;13.052;2023-11-22T04:15:59;1.37;;;1.10;;
23206;SDS011;11773;52.570;13.052;2023-11-22T04:18:29;1.97;;;1.53;;
23206;SDS011;11773;52.570;13.052;2023-11-22T04:20:59;1.90;;;1.63;;
23206;SDS011;11773;52.570;13.052;2023-11-22T04:23:35;1.40;;;1.30;;
23206;SDS011;11773;52.570;13.052;2023-11-22T04:26:01;1.23;;;1.13;;
23206;SDS011;11773;52.570;13.052;2023-11-22T04:28:33;1.83;;;1.40;;
23206;SDS011;11773;52.570;13.052;2023-11-22T04:31:03;1.10;;;1.00;;
23206;SDS011;11773;52.570;13.052;2023-11-22T04:33:32;1.20;;;1.10;;
23206;SDS011;11773;52.570;13.052;2023-11-22T04:36:03;1.13;;;1.03;;
23206;SDS011;11773;52.570;13.052;2023-11-22T04:38:33;1.00;;;1.00;;
23206;SDS011;11773;52.570;13.052;2023-11-22T04:41:03;0.93;;;0.87;;
23206;SDS011;11773;52.570;13.052;2023-11-22T04:43:33;0.83;;;0.83;;
23206;SDS011;11773;52.570;13.052;2023-11-22T04:46:04;0.80;;;0.63;;
23206;SDS011;11773;52.570;13.052;2023-11-22T04:48:33;0.90;;;0.90;;
23206;SDS011;11773;52.570;13.052;2023-11-22T04:51:04;1.03;;;1.00;;
23206;SDS011;11773;52.570;13.052;2023-11-22T04:53:33;1.00;;;0.90;;
23206;SDS011;11773;52.570;13.052;2023-11-22T04:56:03;1.20;;;1.00;;
23206;SDS011;11773;52.570;13.052;2023-11-22T04:58:33;0.90;;;0.90;;
23206;SDS011;11773;52.570;13.052;2023-11-22T05:01:03;0.90;;;0.90;;
23206;SDS011;11773;52.570;13.052;2023-11-22T05:03:32;0.90;;;0.90;;
23206;SDS011;11773;52.570;13.052;2023-11-22T05:06:02;1.13;;;1.03;;
23206;SDS011;11773;52.570;13.052;2023-11-22T05:08:32;1.83;;;1.50;;
23206;SDS011;11773;52.570;13.052;2023-11-22T05:11:02;1.40;;;1.30;;
23206;SDS011;11773;52.570;13.052;2023-11-22T05:13:32;1.73;;;1.63;;
23206;SDS011;11773;52.570;13.052;2023-11-22T05:16:02;1.47;;;1.37;;
23206;SDS011;11773;52.570;13.052;2023-11-22T05:18:32;1.63;;;1.53;;
23206;SDS011;11773;52.570;13.052;2023-11-22T05:21:02;1.70;;;1.40;;
23206;SDS011;11773;52.570;13.052;2023-11-22T05:23:32;1.40;;;1.30;;
23206;SDS011;11773;52.570;13.052;2023-11-22T05:26:03;1.07;;;0.97;;
23206;SDS011;11773;52.570;13.052;2023-11-22T05:28:33;1.30;;;1.20;;
23206;SDS011;11773;52.570;13.052;2023-11-22T05:31:03;0.90;;;0.90;;
23206;SDS011;11773;52.570;13.052;2023-11-22T05:33:33;1.33;;;1.23;;
23206;SDS011;11773;52.570;13.052;2023-11-22T05:36:02;1.40;;;1.27;;
23206;SDS011;11773;52.570;13.052;2023-11-22T05:38:33;1.10;;;1.00;;
23206;SDS011;11773;52.570;13.052;2023-11-22T05:41:02;1.67;;;1.53;;
23206;SDS011;11773;52.570;13.052;2023-11-22T05:43:33;1.30;;;1.20;;
23206;SDS011;11773;52.570;13.052;2023-11-22T05:46:03;1.10;;;0.90;;
23206;SDS011;11773;52.570;13.052;2023-11-22T05:48:33;1.50;;;1.33;;
23206;SDS011;11773;52.570;13.052;2023-11-22T05:51:03;1.50;;;1.00;;
23206;SDS011;11773;52.570;13.052;2023-11-22T05:53:32;1.00;;;0.90;;
23206;SDS011;11773;52.570;13.052;2023-11-22T05:56:02;1.30;;;1.20;;
23206;SDS011;11773;52.570;13.052;2023-11-22T05:58:33;1.20;;;1.10;;
23206;SDS011;11773;52.570;13.052;2023-11-22T06:01:09;0.87;;;0.87;;
23206;SDS011;11773;52.570;13.052;2023-11-22T06:03:42;0.80;;;0.80;;
23206;SDS011;11773;52.570;13.052;2023-11-22T06:06:12;0.97;;;0.90;;
23206;SDS011;11773;52.570;13.052;2023-11-22T06:08:42;0.90;;;0.90;;
23206;SDS011;11773;52.570;13.052;2023-11-22T06:11:11;1.30;;;1.20;;
23206;SDS011;11773;52.570;13.052;2023-11-22T06:13:42;1.10;;;0.90;;
23206;SDS011;11773;52.570;13.052;2023-11-22T06:16:13;1.10;;;1.00;;
23206;SDS011;11773;52.570;13.052;2023-11-22T06:18:42;1.10;;;1.00;;
23206;SDS011;11773;52.570;13.052;2023-11-22T06:21:12;1.20;;;1.00;;
23206;SDS011;11773;52.570;13.052;2023-11-22T06:23:42;1.10;;;1.00;;
23206;SDS011;11773;52.570;13.052;2023-11-22T06:26:12;1.00;;;1.00;;
23206;SDS011;11773;52.570;13.052;2023-11-22T06:28:42;1.00;;;0.93;;
23206;SDS011;11773;52.570;13.052;2023-11-22T06:31:13;1.67;;;1.07;;
23206;SDS011;11773;52.570;13.052;2023-11-22T06:33:42;1.53;;;0.90;;
23206;SDS011;11773;52.570;13.052;2023-11-22T06:36:12;1.20;;;1.10;;
23206;SDS011;11773;52.570;13.052;2023-11-22T06:38:42;1.83;;;1.20;;
23206;SDS011;11773;52.570;13.052;2023-11-22T06:41:13;1.70;;;1.47;;
23206;SDS011;11773;52.570;13.052;2023-11-22T06:43:44;1.40;;;1.30;;
23206;SDS011;11773;52.570;13.052;2023-11-22T06:46:14;1.30;;;1.03;;
23206;SDS011;11773;52.570;13.052;2023-11-22T06:48:46;1.13;;;1.03;;
23206;SDS011;11773;52.570;13.052;2023-11-22T06:51:17;1.03;;;0.93;;
23206;SDS011;11773;52.570;13.052;2023-11-22T06:53:46;1.53;;;1.43;;
23206;SDS011;11773;52.570;13.052;2023-11-22T06:56:17;1.30;;;1.20;;
23206;SDS011;11773;52.570;13.052;2023-11-22T06:58:46;1.27;;;1.17;;
23206;SDS011;11773;52.570;13.052;2023-11-22T07:01:16;1.17;;;1.07;;
23206;SDS011;11773;52.570;13.052;2023-11-22T07:03:45;1.43;;;1.33;;
23206;SDS011;11773;52.570;13.052;2023-11-22T07:06:16;1.67;;;1.40;;
23206;SDS011;11773;52.570;13.052;2023-11-22T07:08:46;1.30;;;1.20;;
23206;SDS011;11773;52.570;13.052;2023-11-22T07:11:23;1.40;;;1.13;;
23206;SDS011;11773;52.570;13.052;2023-11-22T07:13:53;1.43;;;1.33;;
23206;SDS011;11773;52.570;13.052;2023-11-22T07:16:24;2.47;;;1.87;;
23206;SDS011;11773;52.570;13.052;2023-11-22T07:18:54;1.50;;;1.40;;
23206;SDS011;11773;52.570;13.052;2023-11-22T07:21:23;2.17;;;1.60;;
23206;SDS011;11773;52.570;13.052;2023-11-22T07:23:53;2.20;;;2.00;;
23206;SDS011;11773;52.570;13.052;2023-11-22T07:26:23;1.47;;;1.37;;
23206;SDS011;11773;52.570;13.052;2023-11-22T07:28:54;2.07;;;1.37;;
23206;SDS011;11773;52.570;13.052;2023-11-22T07:31:24;1.50;;;1.40;;
23206;SDS011;11773;52.570;13.052;2023-11-22T07:33:53;1.30;;;1.20;;
23206;SDS011;11773;52.570;13.052;2023-11-22T07:36:23;2.23;;;1.90;;
23206;SDS011;11773;52.570;13.052;2023-11-22T07:38:52;1.80;;;1.53;;
23206;SDS011;11773;52.570;13.052;2023-11-22T07:41:22;1.83;;;1.57;;
23206;SDS011;11773;52.570;13.052;2023-11-22T07:43:52;1.97;;;1.77;;
23206;SDS011;11773;52.570;13.052;2023-11-22T07:46:22;1.97;;;1.80;;
23206;SDS011;11773;52.570;13.052;2023-11-22T07:48:52;2.70;;;1.77;;
23206;SDS011;11773;52.570;13.052;2023-11-22T07:51:22;1.60;;;1.50;;
23206;SDS011;11773;52.570;13.052;2023-11-22T07:53:51;2.83;;;2.20;;
23206;SDS011;11773;52.570;13.052;2023-11-22T07:56:22;1.60;;;1.47;;
23206;SDS011;11773;52.570;13.052;2023-11-22T07:58:52;1.90;;;1.70;;
23206;SDS011;11773;52.570;13.052;2023-11-22T08:01:22;1.50;;;1.40;;
23206;SDS011;11773;52.570;13.052;2023-11-22T08:03:52;1.97;;;1.63;;
23206;SDS011;11773;52.570;13.052;2023-11-22T08:06:22;1.90;;;1.50;;
23206;SDS011;11773;52.570;13.052;2023-11-22T08:08:53;1.57;;;1.47;;
23206;SDS011;11773;52.570;13.052;2023-11-22T08:11:23;1.60;;;1.30;;
23206;SDS011;11773;52.570;13.052;2023-11-22T08:13:55;1.83;;;1.60;;
23206;SDS011;11773;52.570;13.052;2023-11-22T08:16:26;1.57;;;1.30;;
23206;SDS011;11773;52.570;13.052;2023-11-22T08:18:56;1.33;;;1.20;;
23206;SDS011;11773;52.570;13.052;2023-11-22T08:21:25;3.67;;;1.73;;
23206;SDS011;11773;52.570;13.052;2023-11-22T08:23:55;1.67;;;1.30;;
23206;SDS011;11773;52.570;13.052;2023-11-22T08:26:26;1.27;;;1.17;;
23206;SDS011;11773;52.570;13.052;2023-11-22T08:28:56;2.27;;;1.67;;
23206;SDS011;11773;52.570;13.052;2023-11-22T08:31:25;2.30;;;2.10;;
23206;SDS011;11773;52.570;13.052;2023-11-22T08:33:55;2.00;;;1.77;;
23206;SDS011;11773;52.570;13.052;2023-11-22T08:36:25;1.70;;;1.60;;
23206;SDS011;11773;52.570;13.052;2023-11-22T08:38:55;2.90;;;1.87;;
23206;SDS011;11773;52.570;13.052;2023-11-22T08:41:33;2.27;;;1.80;;
23206;SDS011;11773;52.570;13.052;2023-11-22T08:43:58;1.73;;;1.63;;
23206;SDS011;11773;52.570;13.052;2023-11-22T08:46:28;1.97;;;1.60;;
23206;SDS011;11773;52.570;13.052;2023-11-22T08:48:58;2.37;;;1.80;;
23206;SDS011;11773;52.570;13.052;2023-11-22T08:51:29;1.60;;;1.50;;
23206;SDS011;11773;52.570;13.052;2023-11-22T08:54:00;1.87;;;1.70;;
23206;SDS011;11773;52.570;13.052;2023-11-22T08:56:30;1.43;;;1.33;;
23206;SDS011;11773;52.570;13.052;2023-11-22T08:59:01;2.07;;;1.80;;
23206;SDS011;11773;52.570;13.052;2023-11-22T09:01:32;1.83;;;1.63;;
23206;SDS011;11773;52.570;13.052;2023-11-22T09:04:02;2.00;;;1.80;;
23206;SDS011;11773;52.570;13.052;2023-11-22T09:06:31;2.53;;;2.10;;
23206;SDS011;11773;52.570;13.052;2023-11-22T09:09:01;2.73;;;1.67;;
23206;SDS011;11773;52.570;13.052;2023-11-22T09:11:32;3.20;;;2.60;;
23206;SDS011;11773;52.570;13.052;2023-11-22T09:14:02;3.80;;;3.40;;
23206;SDS011;11773;52.570;13.052;2023-11-22T09:16:35;3.33;;;2.60;;
23206;SDS011;11773;52.570;13.052;2023-11-22T09:19:08;3.40;;;2.90;;
23206;SDS011;11773;52.570;13.052;2023-11-22T09:21:38;3.57;;;2.90;;
23206;SDS011;11773;52.570;13.052;2023-11-22T09:24:08;2.20;;;2.00;;
23206;SDS011;11773;52.570;13.052;2023-11-22T09:26:39;2.33;;;2.13;;
23206;SDS011;11773;52.570;13.052;2023-11-22T09:29:10;3.20;;;2.50;;
23206;SDS011;11773;52.570;13.052;2023-11-22T09:31:42;3.10;;;2.60;;
23206;SDS011;11773;52.570;13.052;2023-11-22T09:34:13;3.30;;;2.90;;
23206;SDS011;11773;52.570;13.052;2023-11-22T09:36:43;3.50;;;2.87;;
23206;SDS011;11773;52.570;13.052;2023-11-22T09:39:13;3.50;;;3.03;;
23206;SDS011;11773;52.570;13.052;2023-11-22T09:41:45;2.60;;;2.37;;
23206;SDS011;11773;52.570;13.052;2023-11-22T09:44:15;2.70;;;2.40;;
23206;SDS011;11773;52.570;13.052;2023-11-22T09:46:46;4.07;;;3.40;;
23206;SDS011;11773;52.570;13.052;2023-11-22T09:49:19;3.70;;;3.23;;
23206;SDS011;11773;52.570;13.052;2023-11-22T09:51:54;5.23;;;3.57;;
23206;SDS011;11773;52.570;13.052;2023-11-22T09:54:27;4.60;;;3.63;;
23206;SDS011;11773;52.570;13.052;2023-11-22T09:57:00;3.87;;;3.20;;
23206;SDS011;11773;52.570;13.052;2023-11-22T09:59:33;3.43;;;2.90;;
23206;SDS011;11773;52.570;13.052;2023-11-22T10:02:04;3.43;;;2.67;;
23206;SDS011;11773;52.570;13.052;2023-11-22T10:04:34;3.40;;;3.00;;
23206;SDS011;11773;52.570;13.052;2023-11-22T10:07:05;3.53;;;2.73;;
23206;SDS011;11773;52.570;13.052;2023-11-22T10:09:37;3.47;;;2.97;;
23206;SDS011;11773;52.570;13.052;2023-11-22T10:12:08;6.13;;;3.73;;
23206;SDS011;11773;52.570;13.052;2023-11-22T10:14:46;4.43;;;3.50;;
23206;SDS011;11773;52.570;13.052;2023-11-22T10:17:16;4.07;;;2.57;;
23206;SDS011;11773;52.570;13.052;2023-11-22T10:19:47;1.77;;;1.67;;
23206;SDS011;11773;52.570;13.052;2023-11-22T10:22:19;2.10;;;1.90;;
23206;SDS011;11773;52.570;13.052;2023-11-22T10:24:48;2.50;;;2.27;;
23206;SDS011;11773;52.570;13.052;2023-11-22T10:27:20;1.93;;;1.77;;
23206;SDS011;11773;52.570;13.052;2023-11-22T10:29:51;1.63;;;1.50;;
23206;SDS011;11773;52.570;13.052;2023-11-22T10:32:21;3.00;;;2.77;;
23206;SDS011;11773;52.570;13.052;2023-11-22T10:34:51;1.83;;;1.60;;
23206;SDS011;11773;52.570;13.052;2023-11-22T10:37:21;2.40;;;2.00;;
23206;SDS011;11773;52.570;13.052;2023-11-22T10:39:52;2.30;;;2.00;;
23206;SDS011;11773;52.570;13.052;2023-11-22T10:42:22;2.07;;;1.80;;
23206;SDS011;11773;52.570;13.052;2023-11-22T10:44:55;2.20;;;2.00;;
23206;SDS011;11773;52.570;13.052;2023-11-22T10:47:28;2.20;;;2.00;;
23206;SDS011;11773;52.570;13.052;2023-11-22T10:49:59;1.87;;;1.53;;
23206;SDS011;11773;52.570;13.052;2023-11-22T10:52:29;2.33;;;1.90;;
23206;SDS011;11773;52.570;13.052;2023-11-22T10:55:02;1.67;;;1.57;;
23206;SDS011;11773;52.570;13.052;2023-11-22T10:57:40;1.30;;;1.20;;
23206;SDS011;11773;52.570;13.052;2023-11-22T11:00:20;1.37;;;1.27;;
23206;SDS011;11773;52.570;13.052;2023-11-22T11:02:59;1.27;;;1.17;;
23206;SDS011;11773;52.570;13.052;2023-11-22T11:05:38;1.83;;;1.60;;
23206;SDS011;11773;52.570;13.052;2023-11-22T11:08:11;1.67;;;1.50;;
23206;SDS011;11773;52.570;13.052;2023-11-22T11:10:45;1.73;;;1.40;;
23206;SDS011;11773;52.570;13.052;2023-11-22T11:13:16;1.60;;;1.50;;
23206;SDS011;11773;52.570;13.052;2023-11-22T11:15:46;1.90;;;1.70;;
23206;SDS011;11773;52.570;13.052;2023-11-22T11:18:16;2.07;;;1.60;;
23206;SDS011;11773;52.570;13.052;2023-11-22T11:20:53;2.10;;;1.83;;
23206;SDS011;11773;52.570;13.052;2023-11-22T11:23:26;1.90;;;1.70;;
23206;SDS011;11773;52.570;13.052;2023-11-22T11:25:57;1.70;;;1.50;;
23206;SDS011;11773;52.570;13.052;2023-11-22T11:28:41;1.43;;;1.33;;
23206;SDS011;11773;52.570;13.052;2023-11-22T11:31:15;1.50;;;1.30;;
23206;SDS011;11773;52.570;13.052;2023-11-22T11:36:26;2.97;;;1.93;;
23206;SDS011;11773;52.570;13.052;2023-11-22T11:39:01;2.07;;;1.80;;
23206;SDS011;11773;52.570;13.052;2023-11-22T11:41:36;2.20;;;2.00;;
23206;SDS011;11773;52.570;13.052;2023-11-22T11:44:07;1.67;;;1.57;;
23206;SDS011;11773;52.570;13.052;2023-11-22T11:46:39;3.40;;;2.63;;
23206;SDS011;11773;52.570;13.052;2023-11-22T11:49:11;3.13;;;2.60;;
23206;SDS011;11773;52.570;13.052;2023-11-22T11:51:41;2.50;;;2.17;;
23206;SDS011;11773;52.570;13.052;2023-11-22T11:54:12;3.07;;;2.47;;
23206;SDS011;11773;52.570;13.052;2023-11-22T11:56:43;2.30;;;2.10;;
23206;SDS011;11773;52.570;13.052;2023-11-22T11:59:15;3.40;;;2.77;;
23206;SDS011;11773;52.570;13.052;2023-11-22T12:01:46;3.07;;;2.70;;
23206;SDS011;11773;52.570;13.052;2023-11-22T12:04:18;2.97;;;2.37;;
23206;SDS011;11773;52.570;13.052;2023-11-22T12:06:48;2.00;;;1.80;;
23206;SDS011;11773;52.570;13.052;2023-11-22T12:09:24;2.57;;;2.37;;
23206;SDS011;11773;52.570;13.052;2023-11-22T12:11:59;2.17;;;1.97;;
23206;SDS011;11773;52.570;13.052;2023-11-22T12:14:30;2.93;;;2.37;;
23206;SDS011;11773;52.570;13.052;2023-11-22T12:17:00;2.20;;;2.00;;
23206;SDS011;11773;52.570;13.052;2023-11-22T12:19:33;1.93;;;1.70;;
23206;SDS011;11773;52.570;13.052;2023-11-22T12:22:02;2.90;;;2.53;;
23206;SDS011;11773;52.570;13.052;2023-11-22T12:24:35;3.40;;;2.83;;
23206;SDS011;11773;52.570;13.052;2023-11-22T12:27:05;4.33;;;3.00;;
23206;SDS011;11773;52.570;13.052;2023-11-22T12:29:37;3.17;;;2.70;;
23206;SDS011;11773;52.570;13.052;2023-11-22T12:32:09;3.47;;;2.70;;
23206;SDS011;11773;52.570;13.052;2023-11-22T12:34:39;2.10;;;1.80;;
23206;SDS011;11773;52.570;13.052;2023-11-22T12:37:09;2.23;;;1.90;;
23206;SDS011;11773;52.570;13.052;2023-11-22T12:39:39;1.97;;;1.77;;
23206;SDS011;11773;52.570;13.052;2023-11-22T12:42:09;2.17;;;1.90;;
23206;SDS011;11773;52.570;13.052;2023-11-22T12:44:51;2.63;;;2.27;;
23206;SDS011;11773;52.570;13.052;2023-11-22T12:47:33;3.23;;;2.20;;
23206;SDS011;11773;52.570;13.052;2023-11-22T12:50:03;1.97;;;1.77;;
23206;SDS011;11773;52.570;13.052;2023-11-22T12:52:35;1.70;;;1.60;;
23206;SDS011;11773;52.570;13.052;2023-11-22T12:55:07;2.43;;;1.90;;
23206;SDS011;11773;52.570;13.052;2023-11-22T12:57:36;1.70;;;1.60;;
23206;SDS011;11773;52.570;13.052;2023-11-22T13:00:07;1.60;;;1.50;;
23206;SDS011;11773;52.570;13.052;2023-11-22T13:02:38;1.97;;;1.77;;
23206;SDS011;11773;52.570;13.052;2023-11-22T13:05:09;1.57;;;1.47;;
23206;SDS011;11773;52.570;13.052;2023-11-22T13:07:41;2.10;;;1.87;;
23206;SDS011;11773;52.570;13.052;2023-11-22T13:10:11;1.90;;;1.80;;
23206;SDS011;11773;52.570;13.052;2023-11-22T13:12:42;1.73;;;1.37;;
23206;SDS011;11773;52.570;13.052;2023-11-22T13:15:12;1.77;;;1.67;;
23206;SDS011;11773;52.570;13.052;2023-11-22T13:17:43;1.57;;;1.47;;
23206;SDS011;11773;52.570;13.052;2023-11-22T13:20:12;1.57;;;1.40;;
23206;SDS011;11773;52.570;13.052;2023-11-22T13:22:43;1.50;;;1.40;;
23206;SDS011;11773;52.570;13.052;2023-11-22T13:25:14;1.60;;;1.50;;
23206;SDS011;11773;52.570;13.052;2023-11-22T13:27:52;1.40;;;1.30;;
23206;SDS011;11773;52.570;13.052;2023-11-22T13:30:19;1.50;;;1.40;;
23206;SDS011;11773;52.570;13.052;2023-11-22T13:32:50;1.43;;;1.33;;
23206;SDS011;11773;52.570;13.052;2023-11-22T13:35:27;1.60;;;1.37;;
23206;SDS011;11773;52.570;13.052;2023-11-22T13:37:59;1.40;;;0.90;;
23206;SDS011;11773;52.570;13.052;2023-11-22T13:40:29;1.47;;;1.37;;
23206;SDS011;11773;52.570;13.052;2023-11-22T13:42:58;1.27;;;1.17;;
23206;SDS011;11773;52.570;13.052;2023-11-22T13:45:28;1.30;;;1.20;;
23206;SDS011;11773;52.570;13.052;2023-11-22T13:47:57;1.50;;;1.40;;
23206;SDS011;11773;52.570;13.052;2023-11-22T13:50:34;1.30;;;1.20;;
23206;SDS011;11773;52.570;13.052;2023-11-22T13:53:05;1.20;;;1.10;;
23206;SDS011;11773;52.570;13.052;2023-11-22T13:55:36;1.13;;;1.03;;
23206;SDS011;11773;52.570;13.052;2023-11-22T13:58:06;1.20;;;1.10;;
23206;SDS011;11773;52.570;13.052;2023-11-22T14:00:36;1.50;;;1.40;;
23206;SDS011;11773;52.570;13.052;2023-11-22T14:03:06;1.20;;;1.10;;
23206;SDS011;11773;52.570;13.052;2023-11-22T14:05:38;1.30;;;1.20;;
23206;SDS011;11773;52.570;13.052;2023-11-22T14:08:07;1.23;;;1.13;;
23206;SDS011;11773;52.570;13.052;2023-11-22T14:10:37;1.63;;;1.40;;
23206;SDS011;11773;52.570;13.052;2023-11-22T14:13:07;1.67;;;1.57;;
23206;SDS011;11773;52.570;13.052;2023-11-22T14:15:36;1.83;;;1.40;;
23206;SDS011;11773;52.570;13.052;2023-11-22T14:18:06;1.20;;;1.10;;
23206;SDS011;11773;52.570;13.052;2023-11-22T14:20:36;1.07;;;1.07;;
23206;SDS011;11773;52.570;13.052;2023-11-22T14:23:05;1.40;;;1.30;;
23206;SDS011;11773;52.570;13.052;2023-11-22T14:25:35;1.30;;;1.20;;
23206;SDS011;11773;52.570;13.052;2023-11-22T14:28:06;1.17;;;1.07;;
23206;SDS011;11773;52.570;13.052;2023-11-22T14:30:36;1.37;;;1.27;;
23206;SDS011;11773;52.570;13.052;2023-11-22T14:33:08;1.17;;;1.07;;
23206;SDS011;11773;52.570;13.052;2023-11-22T14:35:37;2.17;;;1.97;;
23206;SDS011;11773;52.570;13.052;2023-11-22T14:38:07;1.50;;;1.40;;
23206;SDS011;11773;52.570;13.052;2023-11-22T14:40:38;2.10;;;1.90;;
23206;SDS011;11773;52.570;13.052;2023-11-22T14:43:08;1.67;;;1.50;;
23206;SDS011;11773;52.570;13.052;2023-11-22T14:45:38;1.33;;;1.23;;
23206;SDS011;11773;52.570;13.052;2023-11-22T14:48:07;1.47;;;1.33;;
23206;SDS011;11773;52.570;13.052;2023-11-22T14:50:40;1.40;;;1.30;;
23206;SDS011;11773;52.570;13.052;2023-11-22T14:53:10;1.50;;;1.40;;
23206;SDS011;11773;52.570;13.052;2023-11-22T14:55:42;1.40;;;1.30;;